createdAt,value
2019-01-23T00:00:38.911Z,54.20
2019-01-23T00:03:09.337Z,50.80
2019-01-23T00:05:37.810Z,49.80
2019-01-23T00:08:06.353Z,53.60
2019-01-23T00:10:37.509Z,53.10
2019-01-23T00:13:06.083Z,51.50
2019-01-23T00:15:34.564Z,50.63
2019-01-23T00:18:04.585Z,51.57
2019-01-23T00:20:36.068Z,48.73
2019-01-23T00:23:04.565Z,49.60
2019-01-23T00:25:36.310Z,48.17
2019-01-23T00:28:04.978Z,52.07
2019-01-23T00:30:33.341Z,47.63
2019-01-23T00:33:01.751Z,50.53
2019-01-23T00:35:33.479Z,51.40
2019-01-23T00:38:01.993Z,50.83
2019-01-23T00:40:30.507Z,52.07
2019-01-23T00:42:59.097Z,50.97
2019-01-23T00:45:27.662Z,51.10
2019-01-23T00:47:56.202Z,51.90
2019-01-23T00:50:24.602Z,50.70
2019-01-23T00:52:53.142Z,49.77
2019-01-23T00:55:23.263Z,50.47
2019-01-23T00:57:51.869Z,49.73
2019-01-23T01:00:22.652Z,51.37
2019-01-23T01:02:53.971Z,51.60
2019-01-23T01:05:22.526Z,54.13
2019-01-23T01:07:50.993Z,51.60
2019-01-23T01:10:22.500Z,53.33
2019-01-23T01:12:55.304Z,52.00
2019-01-23T01:15:23.811Z,51.10
2019-01-23T01:17:54.318Z,50.57
2019-01-23T01:20:22.780Z,50.57
2019-01-23T01:22:52.950Z,50.90
2019-01-23T01:25:21.405Z,50.30
2019-01-23T01:27:50.001Z,48.27
2019-01-23T01:30:23.649Z,51.17
2019-01-23T01:32:52.229Z,50.20
2019-01-23T01:35:20.799Z,50.20
2019-01-23T01:37:51.403Z,50.53
2019-01-23T01:40:19.941Z,51.47
2019-01-23T01:42:48.383Z,49.93
2019-01-23T01:45:17.344Z,54.67
2019-01-23T01:47:48.834Z,49.27
2019-01-23T01:50:19.255Z,52.20
2019-01-23T01:52:47.885Z,52.27
2019-01-23T01:55:21.036Z,50.20
2019-01-23T01:57:52.063Z,51.60
2019-01-23T02:00:25.326Z,50.20
2019-01-23T02:02:55.461Z,50.37
2019-01-23T02:05:27.359Z,49.33
2019-01-23T02:07:55.835Z,50.27
2019-01-23T02:10:24.219Z,51.70
2019-01-23T02:12:52.659Z,49.07
2019-01-23T02:15:21.178Z,49.37
2019-01-23T02:17:50.120Z,52.53
2019-01-23T02:20:23.418Z,51.10
2019-01-23T02:22:51.904Z,51.43
2019-01-23T02:25:20.708Z,51.67
2019-01-23T02:27:49.812Z,52.50
2019-01-23T02:30:20.868Z,49.10
2019-01-23T02:32:49.341Z,50.40
2019-01-23T02:35:18.043Z,51.67
2019-01-23T02:37:46.767Z,51.60
2019-01-23T02:40:19.736Z,51.23
2019-01-23T02:42:48.305Z,50.00
2019-01-23T02:45:20.964Z,51.43
2019-01-23T02:47:51.219Z,50.40
2019-01-23T02:50:19.645Z,51.33
2019-01-23T02:52:49.952Z,48.97
2019-01-23T02:55:18.388Z,48.13
2019-01-23T02:57:46.999Z,46.90
2019-01-23T03:00:18.243Z,47.93
2019-01-23T03:02:46.702Z,51.60
2019-01-23T03:05:17.288Z,49.57
2019-01-23T03:07:45.999Z,49.53
2019-01-23T03:10:19.161Z,49.90
2019-01-23T03:12:47.538Z,49.57
2019-01-23T03:15:17.258Z,47.67
2019-01-23T03:17:45.899Z,49.03
2019-01-23T03:20:19.594Z,47.50
2019-01-23T03:22:50.690Z,50.67
2019-01-23T03:25:19.222Z,50.97
2019-01-23T03:27:49.468Z,51.17
2019-01-23T03:30:28.213Z,52.53
2019-01-23T03:33:07.227Z,50.10
2019-01-23T03:38:39.216Z,46.97
2019-01-23T03:41:17.606Z,48.27
2019-01-23T03:43:54.254Z,48.60
2019-01-23T03:46:26.661Z,47.00
2019-01-23T03:49:10.664Z,51.17
2019-01-23T03:51:45.804Z,50.00
2019-01-23T03:54:15.797Z,48.90
2019-01-23T03:56:44.497Z,50.80
2019-01-23T03:59:12.966Z,48.57
2019-01-23T04:01:47.164Z,50.53
2019-01-23T04:04:17.458Z,50.77
2019-01-23T04:06:49.235Z,51.03
2019-01-23T04:09:17.769Z,50.43
2019-01-23T04:11:55.633Z,48.70
2019-01-23T04:14:26.011Z,51.73
2019-01-23T04:16:54.560Z,49.83
2019-01-23T04:19:23.232Z,50.33
2019-01-23T04:21:51.684Z,48.53
2019-01-23T04:24:21.753Z,50.27
2019-01-23T04:26:52.145Z,49.77
2019-01-23T04:29:25.379Z,52.77
2019-01-23T04:31:57.661Z,52.97
2019-01-23T04:34:26.056Z,49.43
2019-01-23T04:36:58.263Z,50.40
2019-01-23T04:39:30.114Z,52.13
2019-01-23T04:42:01.906Z,53.70
2019-01-23T04:44:39.048Z,51.53
2019-01-23T04:47:16.070Z,51.33
2019-01-23T04:49:52.047Z,51.87
2019-01-23T04:52:33.855Z,54.10
2019-01-23T04:55:04.227Z,51.90
2019-01-23T04:57:36.139Z,54.33
2019-01-23T05:00:08.088Z,53.63
2019-01-23T05:02:36.821Z,52.40
2019-01-23T05:05:15.100Z,53.00
2019-01-23T05:07:51.173Z,53.13
2019-01-23T05:10:24.825Z,50.23
2019-01-23T05:12:53.253Z,50.53
2019-01-23T05:15:21.659Z,48.53
2019-01-23T05:17:49.960Z,51.30
2019-01-23T05:20:18.271Z,48.60
2019-01-23T05:22:46.589Z,49.27
2019-01-23T05:25:14.898Z,50.57
2019-01-23T05:27:43.233Z,48.43
2019-01-23T05:30:15.315Z,50.23
2019-01-23T05:32:43.717Z,48.67
2019-01-23T05:35:12.118Z,45.13
2019-01-23T05:37:40.390Z,47.77
2019-01-23T05:40:09.246Z,48.43
2019-01-23T05:42:37.685Z,47.93
2019-01-23T05:45:08.415Z,47.30
2019-01-23T05:47:36.728Z,52.87
2019-01-23T05:50:08.326Z,47.57
2019-01-23T05:52:36.864Z,50.57
2019-01-23T05:55:07.842Z,48.10
2019-01-23T05:57:37.839Z,47.60
2019-01-23T06:00:12.074Z,47.87
2019-01-23T06:02:40.505Z,50.27
2019-01-23T06:05:14.867Z,51.23
2019-01-23T06:07:43.462Z,49.53
2019-01-23T06:10:12.017Z,48.43
2019-01-23T06:12:40.530Z,49.47
2019-01-23T06:15:17.228Z,48.03
2019-01-23T06:17:45.627Z,47.50
2019-01-23T06:20:19.334Z,48.80
2019-01-23T06:22:47.823Z,47.83
2019-01-23T06:25:16.168Z,51.53
2019-01-23T06:27:44.657Z,48.60
2019-01-23T06:30:17.966Z,53.73
2019-01-23T06:32:46.562Z,53.57
2019-01-23T06:35:15.047Z,52.50
2019-01-23T06:37:43.494Z,52.87
2019-01-23T06:40:13.472Z,54.80
2019-01-23T06:42:41.843Z,54.40
2019-01-23T06:45:17.631Z,54.13
2019-01-23T06:47:46.617Z,53.17
2019-01-23T06:50:18.436Z,53.77
2019-01-23T06:52:46.719Z,51.97
2019-01-23T06:55:16.681Z,52.43
2019-01-23T06:57:44.981Z,51.53
2019-01-23T07:00:21.966Z,48.70
2019-01-23T07:02:56.049Z,52.67
2019-01-23T07:05:24.384Z,50.47
2019-01-23T07:07:52.785Z,49.93
2019-01-23T07:10:22.996Z,49.20
2019-01-23T07:12:51.398Z,51.77
2019-01-23T07:15:19.988Z,50.30
2019-01-23T07:17:48.363Z,50.17
2019-01-23T07:20:21.988Z,46.50
2019-01-23T07:22:50.249Z,46.00
2019-01-23T07:25:18.610Z,44.83
2019-01-23T07:27:46.883Z,47.93
2019-01-23T07:30:24.585Z,48.33
2019-01-23T07:32:52.924Z,48.53
2019-01-23T07:35:21.192Z,51.73
2019-01-23T07:37:49.456Z,47.60
2019-01-23T07:40:17.735Z,46.20
2019-01-23T07:42:46.016Z,49.17
2019-01-23T07:45:17.122Z,47.20
2019-01-23T07:47:45.393Z,45.57
2019-01-23T07:50:13.928Z,46.30
2019-01-23T07:52:42.204Z,47.10
2019-01-23T07:55:16.357Z,48.20
2019-01-23T07:57:44.617Z,45.50
2019-01-23T08:00:17.953Z,46.67
2019-01-23T08:02:46.213Z,45.83
2019-01-23T08:05:20.270Z,45.93
2019-01-23T08:07:48.614Z,46.40
2019-01-23T08:10:18.321Z,45.23
2019-01-23T08:12:46.833Z,47.93
2019-01-23T08:15:20.715Z,46.23
2019-01-23T08:17:48.980Z,47.47
2019-01-23T08:20:22.059Z,49.30
2019-01-23T08:22:50.330Z,50.83
2019-01-23T08:25:18.619Z,50.53
2019-01-23T08:27:46.889Z,51.77
2019-01-23T08:30:17.395Z,49.47
2019-01-23T08:32:45.739Z,48.83
2019-01-23T08:35:14.067Z,49.33
2019-01-23T08:37:42.334Z,49.27
2019-01-23T08:40:13.309Z,50.27
2019-01-23T08:42:41.575Z,54.77
2019-01-23T08:45:11.570Z,53.23
2019-01-23T08:47:39.856Z,51.93
2019-01-23T08:50:11.375Z,56.77
2019-01-23T08:52:39.676Z,54.70
2019-01-23T08:55:07.942Z,55.23
2019-01-23T08:57:36.251Z,56.07
2019-01-23T09:00:07.786Z,56.00
2019-01-23T09:02:36.191Z,57.53
2019-01-23T09:05:06.396Z,55.13
2019-01-23T09:07:34.858Z,56.17
2019-01-23T09:10:03.353Z,56.03
2019-01-23T09:12:32.933Z,55.00
2019-01-23T09:15:01.290Z,54.97
2019-01-23T09:17:29.759Z,56.37
2019-01-23T09:19:58.103Z,59.53
2019-01-23T09:22:26.441Z,55.47
2019-01-23T09:24:54.715Z,58.03
2019-01-23T09:27:23.068Z,54.73
2019-01-23T09:29:51.326Z,55.30
2019-01-23T09:32:42.413Z,53.33
2019-01-23T09:35:19.975Z,57.50
2019-01-23T09:38:12.666Z,56.60
2019-01-23T09:40:49.013Z,56.03
2019-01-23T09:43:26.215Z,56.67
2019-01-23T09:46:09.856Z,54.00
2019-01-23T09:48:47.445Z,55.10
2019-01-23T09:51:30.471Z,53.87
2019-01-23T09:54:04.919Z,52.60
2019-01-23T09:56:33.298Z,52.10
2019-01-23T09:59:02.592Z,55.00
2019-01-23T10:01:31.265Z,53.43
2019-01-23T10:03:59.890Z,57.33
2019-01-23T10:06:28.497Z,52.50
2019-01-23T10:08:56.827Z,52.10
2019-01-23T10:11:25.539Z,51.93
2019-01-23T10:13:54.145Z,53.57
2019-01-23T10:16:22.622Z,50.50
2019-01-23T10:18:55.973Z,50.90
2019-01-23T10:21:21.357Z,51.93
2019-01-23T10:23:51.512Z,52.40
2019-01-23T10:26:20.105Z,52.20
2019-01-23T10:28:48.453Z,48.27
2019-01-23T10:31:17.116Z,52.67
2019-01-23T10:33:45.379Z,50.80
2019-01-23T10:36:13.697Z,51.43
2019-01-23T10:38:42.313Z,53.47
2019-01-23T10:41:11.034Z,50.47
2019-01-23T10:43:39.721Z,51.40
2019-01-23T10:46:08.111Z,48.80
2019-01-23T10:48:38.121Z,48.83
2019-01-23T10:51:06.579Z,52.60
2019-01-23T10:53:34.902Z,48.67
2019-01-23T10:56:03.294Z,47.70
2019-01-23T10:58:31.648Z,48.70
2019-01-23T11:00:59.951Z,47.93
2019-01-23T11:03:28.301Z,48.03
2019-01-23T11:05:56.613Z,45.87
2019-01-23T11:08:24.926Z,47.90
2019-01-23T11:10:53.233Z,47.93
2019-01-23T11:13:21.514Z,47.07
2019-01-23T11:15:49.977Z,49.00
2019-01-23T11:18:18.208Z,46.30
2019-01-23T11:20:46.514Z,46.03
2019-01-23T11:23:15.912Z,44.83
2019-01-23T11:25:44.173Z,44.47
2019-01-23T11:28:12.588Z,44.43
2019-01-23T11:30:40.964Z,44.20
2019-01-23T11:33:09.242Z,44.27
2019-01-23T11:35:37.563Z,44.23
2019-01-23T11:38:05.962Z,44.13
2019-01-23T11:40:34.263Z,44.33
2019-01-23T11:43:02.690Z,44.83
2019-01-23T11:45:30.947Z,45.73
2019-01-23T11:48:07.057Z,43.20
2019-01-23T11:50:35.475Z,44.97
2019-01-23T11:53:04.189Z,42.43
2019-01-23T11:55:32.772Z,42.53
2019-01-23T11:58:01.368Z,44.00
2019-01-23T12:00:31.445Z,43.90
2019-01-23T12:03:03.846Z,42.40
2019-01-23T12:05:36.750Z,41.53
2019-01-23T12:08:05.292Z,43.07
2019-01-23T12:10:33.789Z,41.83
2019-01-23T12:13:07.538Z,43.57
2019-01-23T12:15:40.944Z,42.13
2019-01-23T12:18:14.239Z,44.97
2019-01-23T12:20:40.078Z,42.83
2019-01-23T12:23:12.556Z,41.90
2019-01-23T12:25:44.234Z,43.60
2019-01-23T12:28:12.779Z,43.53
2019-01-23T12:30:41.182Z,44.97
2019-01-23T12:33:12.520Z,45.13
2019-01-23T12:35:41.026Z,46.40
2019-01-23T12:38:11.231Z,44.00
2019-01-23T12:40:42.613Z,41.23
2019-01-23T12:43:13.056Z,42.43
2019-01-23T12:45:45.939Z,45.17
2019-01-23T12:48:16.093Z,45.37
2019-01-23T12:50:44.831Z,44.37
2019-01-23T12:53:33.797Z,45.80
2019-01-23T12:56:02.356Z,46.07
2019-01-23T12:58:34.217Z,45.13
2019-01-23T13:01:02.457Z,46.90
2019-01-23T13:03:30.748Z,46.17
2019-01-23T13:05:59.011Z,44.13
2019-01-23T13:08:27.281Z,44.80
2019-01-23T13:10:55.548Z,45.47
2019-01-23T13:13:23.850Z,46.53
2019-01-23T13:15:52.116Z,45.40
2019-01-23T13:18:20.380Z,47.93
2019-01-23T13:20:48.647Z,43.90
2019-01-23T13:23:19.846Z,45.27
2019-01-23T13:25:46.937Z,44.90
2019-01-23T13:28:15.272Z,43.70
2019-01-23T13:30:43.539Z,43.23
2019-01-23T13:33:11.810Z,45.00
2019-01-23T13:35:40.110Z,45.03
2019-01-23T13:38:11.288Z,45.20
2019-01-23T13:40:39.555Z,43.20
2019-01-23T13:43:08.023Z,43.23
2019-01-23T13:45:36.327Z,41.63
2019-01-23T13:48:05.459Z,44.03
2019-01-23T13:50:33.726Z,44.80
2019-01-23T13:53:02.020Z,45.00
2019-01-23T13:55:30.294Z,42.87
2019-01-23T13:57:58.556Z,44.43
2019-01-23T14:00:32.617Z,43.30
2019-01-23T14:03:00.888Z,45.90
2019-01-23T14:05:29.240Z,44.57
2019-01-23T14:07:57.505Z,44.00
2019-01-23T14:10:25.807Z,45.97
2019-01-23T14:12:54.291Z,45.80
2019-01-23T14:15:31.106Z,45.23
2019-01-23T14:17:59.405Z,45.83
2019-01-23T14:20:27.673Z,46.80
2019-01-23T14:22:56.021Z,45.07
2019-01-23T14:25:24.331Z,46.67
2019-01-23T14:27:52.594Z,44.83
2019-01-23T14:30:31.882Z,43.70
2019-01-23T14:33:00.173Z,42.97
2019-01-23T14:35:29.485Z,46.17
2019-01-23T14:38:01.248Z,42.50
2019-01-23T14:40:31.816Z,45.17
2019-01-23T14:43:00.101Z,45.50
2019-01-23T14:45:28.751Z,43.77
2019-01-23T14:47:59.790Z,44.37
2019-01-23T14:50:28.223Z,43.73
2019-01-23T14:52:56.598Z,43.20
2019-01-23T14:55:25.056Z,43.00
2019-01-23T14:57:53.470Z,43.50
2019-01-23T15:00:24.729Z,43.67
2019-01-23T15:02:53.190Z,44.33
2019-01-23T15:05:21.722Z,44.90
2019-01-23T15:07:50.005Z,46.87
2019-01-23T15:10:32.161Z,42.77
2019-01-23T15:13:00.557Z,43.60
2019-01-23T15:15:28.984Z,43.20
2019-01-23T15:17:57.383Z,45.97
2019-01-23T15:20:31.841Z,45.50
2019-01-23T15:23:00.170Z,41.50
2019-01-23T15:25:29.496Z,44.97
2019-01-23T15:27:57.858Z,44.40
2019-01-23T15:30:26.420Z,44.13
2019-01-23T15:32:54.692Z,42.43
2019-01-23T15:35:24.733Z,43.00
2019-01-23T15:37:53.273Z,45.17
2019-01-23T15:40:26.376Z,44.60
2019-01-23T15:42:54.792Z,44.37
2019-01-23T15:45:23.163Z,44.17
2019-01-23T15:47:51.634Z,43.47
2019-01-23T15:50:22.074Z,43.97
2019-01-23T15:52:50.518Z,43.10
2019-01-23T15:55:23.343Z,42.47
2019-01-23T15:57:51.770Z,42.10
2019-01-23T16:00:24.834Z,42.17
2019-01-23T16:02:53.245Z,42.57
2019-01-23T16:05:21.697Z,43.37
2019-01-23T16:07:50.073Z,41.73
2019-01-23T16:10:23.393Z,42.13
2019-01-23T16:12:51.755Z,44.43
2019-01-23T16:15:22.171Z,44.80
2019-01-23T16:17:52.101Z,42.60
2019-01-23T16:20:20.583Z,44.13
2019-01-23T16:22:49.232Z,43.90
2019-01-23T16:25:18.230Z,46.13
2019-01-23T16:27:46.554Z,45.90
2019-01-23T16:30:33.033Z,44.30
2019-01-23T16:33:01.487Z,44.03
2019-01-23T16:35:29.947Z,44.73
2019-01-23T16:37:58.375Z,45.63
2019-01-23T16:40:28.425Z,46.13
2019-01-23T16:42:56.804Z,46.07
2019-01-23T16:45:25.210Z,46.00
2019-01-23T16:47:53.613Z,48.00
2019-01-23T16:50:24.980Z,46.73
2019-01-23T16:52:54.065Z,48.80
2019-01-23T16:55:22.797Z,50.60
2019-01-23T16:57:51.113Z,48.93
2019-01-23T17:00:22.003Z,48.67
2019-01-23T17:02:50.289Z,47.93
2019-01-23T17:05:21.110Z,47.93
2019-01-23T17:07:49.569Z,46.93
2019-01-23T17:10:20.860Z,47.70
2019-01-23T17:12:49.167Z,48.50
2019-01-23T17:15:17.473Z,46.87
2019-01-23T17:17:45.863Z,48.13
2019-01-23T17:20:17.428Z,49.43
2019-01-23T17:22:55.884Z,51.57
2019-01-23T17:25:29.105Z,50.10
2019-01-23T17:28:01.864Z,48.43
2019-01-23T17:30:30.467Z,51.47
2019-01-23T17:32:59.207Z,51.13
2019-01-23T17:35:36.632Z,52.23
2019-01-23T17:38:08.674Z,49.83
2019-01-23T17:40:45.929Z,49.20
2019-01-23T17:43:18.158Z,50.33
2019-01-23T17:45:51.281Z,51.50
2019-01-23T17:48:26.130Z,51.80
2019-01-23T17:53:50.305Z,51.80
2019-01-23T17:56:20.622Z,49.60
2019-01-23T17:58:56.947Z,53.13
2019-01-23T18:01:25.193Z,53.27
2019-01-23T18:03:53.467Z,54.33
2019-01-23T18:06:21.744Z,54.33
2019-01-23T18:08:51.569Z,52.27
2019-01-23T18:11:19.860Z,54.20
2019-01-23T18:13:48.220Z,52.07
2019-01-23T18:16:16.494Z,52.33
2019-01-23T18:18:44.765Z,53.40
2019-01-23T18:21:13.035Z,57.17
2019-01-23T18:23:41.300Z,52.47
2019-01-23T18:26:09.575Z,49.33
2019-01-23T18:28:37.882Z,51.00
2019-01-23T18:31:18.087Z,54.30
2019-01-23T18:34:04.822Z,51.87
2019-01-23T18:37:06.617Z,49.70
2019-01-23T18:39:53.104Z,51.10
2019-01-23T18:42:49.936Z,51.73
2019-01-23T18:45:21.469Z,54.20
2019-01-23T18:47:55.719Z,49.23
2019-01-23T18:50:42.115Z,52.47
2019-01-23T18:53:10.582Z,51.47
2019-01-23T18:55:38.869Z,50.97
2019-01-23T18:58:07.173Z,49.60
2019-01-23T19:00:35.516Z,54.90
2019-01-23T19:03:07.223Z,52.17
2019-01-23T19:05:33.874Z,49.17
2019-01-23T19:08:02.134Z,50.67
2019-01-23T19:10:30.426Z,48.43
2019-01-23T19:12:58.704Z,50.00
2019-01-23T19:15:26.971Z,49.27
2019-01-23T19:17:55.286Z,47.43
2019-01-23T19:20:23.562Z,49.77
2019-01-23T19:22:51.836Z,50.57
2019-01-23T19:25:20.109Z,47.97
2019-01-23T19:27:48.380Z,50.50
2019-01-23T19:30:21.448Z,49.73
2019-01-23T19:32:49.715Z,50.87
2019-01-23T19:35:17.985Z,46.03
2019-01-23T19:37:46.393Z,48.10
2019-01-23T19:40:14.796Z,48.17
2019-01-23T19:42:43.092Z,45.97
2019-01-23T19:45:16.996Z,48.00
2019-01-23T19:47:45.353Z,45.87
2019-01-23T19:50:14.358Z,48.80
2019-01-23T19:52:42.649Z,49.93
2019-01-23T19:55:16.140Z,48.83
2019-01-23T19:57:44.414Z,49.10
2019-01-23T20:00:18.820Z,50.37
2019-01-23T20:02:47.090Z,47.37
2019-01-23T20:05:18.410Z,50.53
2019-01-23T20:07:46.675Z,50.20
2019-01-23T20:10:22.914Z,49.57
2019-01-23T20:12:51.874Z,52.83
2019-01-23T20:15:25.164Z,52.20
2019-01-23T20:17:58.723Z,55.87
2019-01-23T20:20:27.770Z,56.67
2019-01-23T20:22:58.211Z,57.87
2019-01-23T20:25:27.791Z,54.27
2019-01-23T20:27:57.060Z,55.87
2019-01-23T20:30:29.394Z,55.07
2019-01-23T20:32:58.388Z,53.60
2019-01-23T20:35:27.664Z,55.37
2019-01-23T20:37:56.408Z,55.10
2019-01-23T20:40:24.918Z,54.70
2019-01-23T20:42:53.416Z,55.43
2019-01-23T20:45:21.817Z,54.20
2019-01-23T20:47:50.380Z,55.33
2019-01-23T20:50:24.691Z,54.13
2019-01-23T20:52:53.314Z,55.03
2019-01-23T20:55:21.712Z,54.00
2019-01-23T20:57:50.576Z,51.87
2019-01-23T21:00:21.800Z,54.33
2019-01-23T21:02:50.181Z,52.70
2019-01-23T21:05:18.581Z,51.90
2019-01-23T21:07:47.005Z,52.40
2019-01-23T21:10:20.821Z,50.93
2019-01-23T21:12:49.412Z,50.10
2019-01-23T21:15:22.855Z,52.63
2019-01-23T21:17:51.346Z,49.67
2019-01-23T21:20:19.700Z,52.70
2019-01-23T21:22:48.141Z,48.40
2019-01-23T21:25:16.663Z,50.37
2019-01-23T21:27:45.778Z,52.30
2019-01-23T21:30:22.640Z,51.77
2019-01-23T21:32:50.985Z,51.53
2019-01-23T21:35:20.263Z,53.13
2019-01-23T21:37:48.750Z,53.23
2019-01-23T21:40:25.749Z,51.73
2019-01-23T21:42:54.187Z,52.07
2019-01-23T21:45:22.643Z,55.00
2019-01-23T21:47:51.658Z,56.97
2019-01-23T21:50:22.075Z,55.03
2019-01-23T21:52:50.490Z,52.33
2019-01-23T21:55:21.125Z,54.37
2019-01-23T21:57:49.582Z,54.37
2019-01-23T22:00:33.005Z,54.07
2019-01-23T22:03:02.754Z,55.07
2019-01-23T22:05:31.141Z,51.90
2019-01-23T22:07:59.559Z,53.97
2019-01-23T22:10:28.087Z,55.47
2019-01-23T22:12:56.477Z,52.70
2019-01-23T22:15:29.607Z,52.73
2019-01-23T22:17:57.908Z,53.27
2019-01-23T22:20:26.383Z,54.57
2019-01-23T22:22:54.657Z,52.73
2019-01-23T22:25:24.581Z,51.13
2019-01-23T22:27:52.966Z,51.23
2019-01-23T22:30:30.281Z,51.97
2019-01-23T22:32:58.598Z,53.23
2019-01-23T22:35:28.519Z,50.00
2019-01-23T22:37:56.860Z,48.53
2019-01-23T22:40:25.208Z,51.83
2019-01-23T22:42:53.554Z,52.53
2019-01-23T22:45:22.031Z,52.20
2019-01-23T22:47:50.292Z,51.33
2019-01-23T22:50:23.538Z,51.57
2019-01-23T22:52:51.882Z,52.23
2019-01-23T22:55:20.199Z,50.83
2019-01-23T22:57:48.501Z,49.97
2019-01-23T23:00:25.834Z,50.27
2019-01-23T23:02:54.149Z,53.43
2019-01-23T23:05:22.471Z,49.20
2019-01-23T23:07:50.761Z,51.90
2019-01-23T23:10:19.033Z,51.30
2019-01-23T23:12:47.327Z,50.53
2019-01-23T23:15:15.627Z,51.17
2019-01-23T23:17:43.901Z,50.07
2019-01-23T23:20:13.208Z,49.67
2019-01-23T23:22:41.501Z,52.90
2019-01-23T23:25:10.171Z,48.57
2019-01-23T23:27:39.450Z,49.43
2019-01-23T23:30:16.510Z,49.87
2019-01-23T23:32:44.778Z,48.43
2019-01-23T23:35:13.143Z,51.40
2019-01-23T23:37:41.426Z,48.70
2019-01-23T23:40:14.477Z,53.77
2019-01-23T23:42:42.927Z,52.83
2019-01-23T23:45:15.921Z,50.60
2019-01-23T23:47:44.410Z,51.33
2019-01-23T23:50:14.461Z,54.37
2019-01-23T23:52:42.814Z,52.50
2019-01-23T23:55:12.531Z,51.23
2019-01-23T23:57:40.844Z,52.73
